Terminal Aerodrome Forecast
Issued by NWS Newport/Morehead City, NC

Home | Current Version | Previous Version | Text Only | Print | Product List | Glossary Off
Versions: 1 2 3 4 5 6 7 8 9 10 11 12 13 14 15 16 17 18 19 20 21

080
FTUS42 KMHX 180512 AAB
TAFEWN
TAF AMD
KEWN 180512Z 1805/1824 VRB03KT 1SM -DZ BR OVC002
     FM181100 30006KT P6SM VCSH OVC060
     FM181200 03009KT P6SM FEW250=

USA.gov is the U.S. government's official web portal to all federal, state and local government web resources and services.